Time;durP1;ratioP1;P1;durP2;ratioP2;P2;SDS_P1;SDS_P2;PMS_P1;PMS_P2;Temp;Humidity;BMP_temperature;BMP_pressure;BME280_temperature;BME280_humidity;BME280_pressure;Samples;Min_cycle;Max_cycle;Signal;HPM_P1;HPM_P2
2022/05/20 00:00:12;;;;;;;3.22;2.92;;;23.40;59.70;;;;;;4977975;28;20047;-15
2022/05/20 00:02:38;;;;;;;3.10;2.67;;;23.40;59.80;;;;;;4966839;28;20062;-15
2022/05/20 00:05:04;;;;;;;4.10;3.00;;;23.40;59.70;;;;;;4958497;28;20042;-15
2022/05/20 00:07:29;;;;;;;3.55;3.17;;;23.40;59.70;;;;;;4957809;28;20054;-15
2022/05/20 00:09:55;;;;;;;3.28;2.78;;;23.30;59.70;;;;;;4969762;28;20504;-15
2022/05/20 00:12:20;;;;;;;3.55;2.83;;;23.30;59.70;;;;;;4976827;28;20502;-16
2022/05/20 00:14:46;;;;;;;3.58;2.70;;;23.40;59.70;;;;;;4977884;28;20035;-15
2022/05/20 00:17:12;;;;;;;3.13;2.88;;;23.40;59.70;;;;;;4976497;28;20074;-15
2022/05/20 00:19:38;;;;;;;2.90;2.67;;;23.30;59.60;;;;;;4976338;28;20505;-15
2022/05/20 00:22:05;;;;;;;3.42;3.00;;;23.30;59.70;;;;;;4976898;28;20481;-15
2022/05/20 00:24:31;;;;;;;3.13;2.92;;;23.30;59.70;;;;;;4977054;28;20039;-15
2022/05/20 00:26:56;;;;;;;3.65;3.15;;;23.30;59.80;;;;;;4976724;28;20062;-15
2022/05/20 00:29:22;;;;;;;2.88;2.63;;;23.30;59.70;;;;;;4976240;28;20063;-15
2022/05/20 00:31:48;;;;;;;2.75;2.55;;;23.30;59.80;;;;;;4977190;28;20046;-15
2022/05/20 00:34:13;;;;;;;2.75;2.47;;;23.30;59.90;;;;;;4977006;28;20084;-15
2022/05/20 00:36:39;;;;;;;3.10;2.80;;;23.30;59.80;;;;;;4976645;28;20534;-15
2022/05/20 00:39:04;;;;;;;2.67;2.47;;;23.30;59.70;;;;;;4976437;28;20047;-15
2022/05/20 00:41:30;;;;;;;2.55;2.35;;;23.30;59.70;;;;;;4970883;28;20436;-15
2022/05/20 00:43:56;;;;;;;2.47;2.28;;;23.40;59.60;;;;;;4977197;28;20035;-15
2022/05/20 00:46:23;;;;;;;2.88;2.67;;;23.30;59.60;;;;;;4969160;28;20043;-15
2022/05/20 00:48:54;;;;;;;2.40;2.20;;;23.30;59.50;;;;;;4957738;28;20496;-15
2022/05/20 00:51:43;;;;;;;2.22;2.10;;;23.30;59.70;;;;;;4969669;28;20523;-16
2022/05/20 00:54:31;;;;;;;2.30;2.10;;;23.30;59.70;;;;;;4973338;28;20043;-15
2022/05/20 00:57:20;;;;;;;2.50;2.30;;;23.30;59.60;;;;;;4971639;28;20054;-15
2022/05/20 01:00:00;;;;;;;2.45;2.25;;;23.30;59.50;;;;;;4972545;28;20057;-15
2022/05/20 01:02:25;;;;;;;2.55;2.35;;;23.30;59.50;;;;;;4976305;28;20057;-15
2022/05/20 01:04:56;;;;;;;2.50;2.30;;;23.20;59.60;;;;;;4986923;28;20050;-15
2022/05/20 01:07:21;;;;;;;2.50;2.30;;;23.30;59.60;;;;;;4975013;28;20046;-16
2022/05/20 01:09:47;;;;;;;2.88;2.30;;;23.30;59.60;;;;;;4975441;28;20046;-15
2022/05/20 01:12:12;;;;;;;2.30;2.20;;;23.30;59.60;;;;;;4975997;28;20050;-15
2022/05/20 01:14:38;;;;;;;2.97;2.17;;;23.20;59.70;;;;;;4976281;28;20071;-15
2022/05/20 01:17:04;;;;;;;2.15;2.03;;;23.20;59.70;;;;;;4976658;28;20062;-15
2022/05/20 01:19:51;;;;;;;2.22;2.13;;;23.20;59.60;;;;;;4966166;28;20067;-15
2022/05/20 01:22:37;;;;;;;2.13;1.92;;;23.20;59.70;;;;;;4974953;28;20062;-15
2022/05/20 01:25:03;;;;;;;2.22;2.05;;;23.20;59.60;;;;;;4975082;28;20171;-15
2022/05/20 01:27:28;;;;;;;1.80;1.70;;;23.20;59.60;;;;;;4974704;28;20050;-15
2022/05/20 01:29:54;;;;;;;1.90;1.80;;;23.20;59.50;;;;;;4975756;28;20043;-15
2022/05/20 01:32:20;;;;;;;2.38;2.17;;;23.20;59.60;;;;;;4975950;28;20046;-17
2022/05/20 01:34:45;;;;;;;3.50;1.90;;;23.20;59.50;;;;;;4975825;28;20046;-15
2022/05/20 01:37:11;;;;;;;1.92;1.83;;;23.20;59.60;;;;;;4971655;28;20062;-15
2022/05/20 01:39:37;;;;;;;1.70;1.60;;;23.20;59.60;;;;;;4975517;28;20046;-14
2022/05/20 01:42:09;;;;;;;2.03;1.83;;;23.20;59.60;;;;;;4975616;28;20137;-16
2022/05/20 01:44:38;;;;;;;1.67;1.58;;;23.20;59.70;;;;;;4974661;28;20412;-15
2022/05/20 01:47:14;;;;;;;2.47;2.28;;;23.20;59.60;;;;;;4966310;28;20155;-15
2022/05/20 01:49:47;;;;;;;2.78;2.30;;;23.20;59.60;;;;;;4972234;28;20050;-15
2022/05/20 01:52:37;;;;;;;2.38;1.92;;;23.20;59.50;;;;;;4972920;28;20045;-15
2022/05/20 01:55:05;;;;;;;1.80;1.70;;;23.20;59.50;;;;;;4975375;28;20503;-15
2022/05/20 01:57:47;;;;;;;2.10;1.90;;;23.20;59.70;;;;;;4974544;28;20043;-15
2022/05/20 02:00:15;;;;;;;1.70;1.60;;;23.10;59.60;;;;;;4960288;28;20520;-15
2022/05/20 02:02:57;;;;;;;2.60;2.15;;;23.10;59.60;;;;;;4975708;28;20043;-14
2022/05/20 02:05:43;;;;;;;1.77;1.67;;;23.20;59.60;;;;;;4954991;28;20102;-15
2022/05/20 02:08:19;;;;;;;1.85;1.75;;;23.20;59.50;;;;;;4981051;28;20038;-14
2022/05/20 02:10:48;;;;;;;2.78;1.80;;;23.20;59.40;;;;;;4975382;28;20181;-15
2022/05/20 02:13:14;;;;;;;1.80;1.70;;;23.20;59.50;;;;;;4974223;28;20065;-15
2022/05/20 02:15:44;;;;;;;1.80;1.70;;;23.20;59.50;;;;;;4972013;28;20126;-15
2022/05/20 02:18:12;;;;;;;2.05;1.77;;;23.20;59.50;;;;;;4974599;28;20045;-15
2022/05/20 02:20:39;;;;;;;4.43;2.08;;;23.10;59.60;;;;;;4989806;28;20057;-15
2022/05/20 02:23:07;;;;;;;1.70;1.60;;;23.10;59.50;;;;;;5006359;28;20051;-15
2022/05/20 02:25:37;;;;;;;1.70;1.60;;;23.20;59.50;;;;;;4958371;28;20050;-15
2022/05/20 02:28:06;;;;;;;1.58;1.48;;;23.10;60.10;;;;;;4948204;28;20047;-15
2022/05/20 02:30:33;;;;;;;2.42;1.52;;;23.10;59.40;;;;;;4958207;28;20105;-15
2022/05/20 02:33:05;;;;;;;1.63;1.52;;;23.10;59.40;;;;;;4976718;28;20098;-15
2022/05/20 02:35:32;;;;;;;3.83;1.65;;;23.10;59.50;;;;;;4958777;28;20051;-15
2022/05/20 02:38:10;;;;;;;1.77;1.55;;;23.10;59.60;;;;;;4973668;28;20043;-15
2022/05/20 02:40:36;;;;;;;1.45;1.35;;;23.10;59.50;;;;;;4976782;28;20117;-15
2022/05/20 02:43:02;;;;;;;1.60;1.50;;;23.10;59.40;;;;;;4978839;28;20061;-15
2022/05/20 02:45:27;;;;;;;1.70;1.15;;;23.10;59.40;;;;;;4978043;28;20043;-15
2022/05/20 02:47:53;;;;;;;1.50;1.40;;;23.10;59.40;;;;;;4979433;28;20407;-15
2022/05/20 02:50:19;;;;;;;1.40;1.30;;;23.10;59.50;;;;;;4978185;28;20046;-15
2022/05/20 02:52:44;;;;;;;1.80;1.40;;;23.10;59.50;;;;;;4978498;28;20097;-15
2022/05/20 02:55:11;;;;;;;1.35;1.25;;;23.10;59.50;;;;;;4979223;28;20791;-15
2022/05/20 02:57:37;;;;;;;1.45;1.35;;;23.10;59.60;;;;;;4978585;28;20051;-15
2022/05/20 03:05:34;;;;;;;1.23;1.13;;;23.10;59.50;;;;;;4978255;28;20518;-17
2022/05/20 03:07:59;;;;;;;1.05;1.02;;;23.10;59.40;;;;;;4978219;28;20475;-15
2022/05/20 03:10:25;;;;;;;1.40;1.30;;;23.10;59.60;;;;;;4977899;28;20039;-16
2022/05/20 03:12:52;;;;;;;1.50;1.40;;;23.10;59.50;;;;;;4978544;28;20047;-15
2022/05/20 03:15:20;;;;;;;1.30;1.20;;;23.10;59.50;;;;;;4958951;28;20055;-15
2022/05/20 03:17:45;;;;;;;1.17;1.08;;;23.10;59.60;;;;;;4961108;28;20058;-14
2022/05/20 03:20:11;;;;;;;1.08;1.00;;;23.10;59.50;;;;;;4977892;28;20134;-15
2022/05/20 03:22:37;;;;;;;1.10;1.00;;;23.10;59.50;;;;;;4977893;28;20058;-15
2022/05/20 03:25:05;;;;;;;2.22;1.50;;;23.10;59.50;;;;;;4978689;28;20042;-15
2022/05/20 03:27:31;;;;;;;1.35;1.25;;;23.00;59.60;;;;;;4977126;28;20049;-15
2022/05/20 03:29:57;;;;;;;1.83;1.40;;;23.00;59.70;;;;;;4977639;28;20078;-16
2022/05/20 03:32:22;;;;;;;1.20;1.10;;;23.00;59.60;;;;;;4978444;28;20042;-15
2022/05/20 03:34:48;;;;;;;1.30;1.20;;;23.00;59.50;;;;;;4976359;28;20047;-15
2022/05/20 03:37:14;;;;;;;1.85;1.17;;;23.00;59.60;;;;;;4977549;28;20046;-14
2022/05/20 03:39:39;;;;;;;1.30;1.20;;;23.00;59.60;;;;;;4977464;28;20054;-15
2022/05/20 03:42:05;;;;;;;2.28;1.20;;;23.00;59.60;;;;;;4978246;28;20042;-15
2022/05/20 03:44:31;;;;;;;1.15;1.02;;;23.00;59.60;;;;;;4977595;28;20046;-15
2022/05/20 03:46:58;;;;;;;1.08;0.98;;;23.00;59.60;;;;;;4970316;28;20126;-15
2022/05/20 03:49:25;;;;;;;1.30;1.20;;;23.00;59.40;;;;;;4973770;28;20097;-15
2022/05/20 03:51:51;;;;;;;1.45;1.02;;;23.00;59.50;;;;;;4977555;28;20520;-15
2022/05/20 03:54:18;;;;;;;0.73;0.73;;;23.00;59.50;;;;;;4978044;28;20451;-15
2022/05/20 03:56:43;;;;;;;0.88;0.88;;;23.00;59.50;;;;;;4976832;28;20047;-15
2022/05/20 03:59:09;;;;;;;1.30;1.20;;;23.10;59.40;;;;;;4977843;28;20050;-15
2022/05/20 04:04:20;;;;;;;1.00;0.90;;;23.00;59.50;;;;;;4977871;28;20046;-15
2022/05/20 04:06:46;;;;;;;1.00;0.90;;;23.00;59.60;;;;;;4975945;28;20050;-14
2022/05/20 04:09:11;;;;;;;1.65;0.90;;;23.00;59.50;;;;;;4977205;28;20050;-15
2022/05/20 04:11:38;;;;;;;1.27;1.05;;;23.00;59.40;;;;;;4960451;28;20062;-15
2022/05/20 04:14:03;;;;;;;1.02;0.93;;;23.10;59.50;;;;;;4977089;28;20043;-15
2022/05/20 04:16:29;;;;;;;1.35;1.25;;;23.00;59.40;;;;;;4977349;28;20043;-16
2022/05/20 04:18:54;;;;;;;1.20;1.10;;;23.10;59.50;;;;;;4977310;28;20042;-15
2022/05/20 04:21:20;;;;;;;1.48;1.38;;;23.00;59.50;;;;;;4976234;28;20516;-16
2022/05/20 04:23:46;;;;;;;0.85;0.80;;;23.00;59.70;;;;;;4975669;28;20047;-15
2022/05/20 04:26:11;;;;;;;0.75;0.75;;;23.00;59.50;;;;;;4976234;28;20050;-15
2022/05/20 04:28:37;;;;;;;0.93;0.90;;;23.00;59.50;;;;;;4974641;28;20134;-15
2022/05/20 04:31:04;;;;;;;1.85;0.82;;;23.00;59.60;;;;;;4976644;28;20069;-16
2022/05/20 04:33:30;;;;;;;0.80;0.80;;;23.00;59.50;;;;;;4975364;28;20046;-17
2022/05/20 04:35:56;;;;;;;0.65;0.65;;;23.00;59.60;;;;;;4975799;28;20093;-15
2022/05/20 04:38:21;;;;;;;1.13;1.00;;;23.00;59.60;;;;;;4976787;28;20155;-15
2022/05/20 04:49:00;;;;;;;1.08;0.98;;;23.00;59.70;;;;;;4972102;28;20459;-16
2022/05/20 04:51:26;;;;;;;0.77;0.77;;;23.00;59.70;;;;;;4977091;28;20047;-15
2022/05/20 04:56:36;;;;;;;1.23;0.90;;;23.00;59.70;;;;;;4976075;28;20049;-16
2022/05/20 04:59:03;;;;;;;0.70;0.70;;;23.00;59.70;;;;;;4976327;28;20058;-15
2022/05/20 05:01:28;;;;;;;0.85;0.82;;;23.00;59.80;;;;;;4976733;28;20415;-15
2022/05/20 05:03:54;;;;;;;0.90;0.90;;;22.90;59.60;;;;;;4974816;28;20134;-17
2022/05/20 05:06:19;;;;;;;0.88;0.88;;;23.00;59.70;;;;;;4975529;28;20047;-15
2022/05/20 05:08:45;;;;;;;0.98;0.98;;;23.00;59.70;;;;;;4971629;28;20062;-15
2022/05/20 05:11:11;;;;;;;0.80;0.70;;;23.00;59.80;;;;;;4972836;28;20522;-16
2022/05/20 05:13:36;;;;;;;1.02;0.88;;;23.00;59.70;;;;;;4972198;28;20061;-16
2022/05/20 05:16:06;;;;;;;0.70;0.70;;;23.00;59.70;;;;;;4972572;28;20039;-16
2022/05/20 05:18:32;;;;;;;1.23;0.80;;;23.00;59.80;;;;;;4968238;28;20057;-17
2022/05/20 05:20:59;;;;;;;0.80;0.80;;;23.00;59.70;;;;;;4971321;28;20115;-15
2022/05/20 05:23:25;;;;;;;1.13;0.95;;;23.00;59.70;;;;;;4973257;28;20049;-15
2022/05/20 05:25:51;;;;;;;4.10;0.98;;;23.00;59.70;;;;;;4974029;28;20074;-16
2022/05/20 05:28:16;;;;;;;2.03;0.73;;;23.00;59.70;;;;;;4968651;28;20054;-15
2022/05/20 05:30:45;;;;;;;1.20;1.10;;;23.00;59.80;;;;;;4969464;28;20548;-15
2022/05/20 05:33:11;;;;;;;0.60;0.60;;;22.90;59.80;;;;;;4972075;28;20050;-16
2022/05/20 05:35:36;;;;;;;1.25;0.70;;;23.00;59.60;;;;;;4972358;28;20105;-15
2022/05/20 05:38:02;;;;;;;0.60;0.60;;;23.00;59.70;;;;;;4626218;28;10000092;-15
2022/05/20 05:40:29;;;;;;;0.70;0.70;;;23.00;59.80;;;;;;4971746;28;20490;-15
2022/05/20 05:42:55;;;;;;;0.95;0.80;;;23.00;59.80;;;;;;4967111;28;20516;-16
2022/05/20 05:45:22;;;;;;;0.60;0.60;;;23.00;59.90;;;;;;4971295;28;20165;-16
2022/05/20 05:47:50;;;;;;;0.73;0.65;;;23.00;59.80;;;;;;4968195;28;20558;-15
2022/05/20 05:50:16;;;;;;;0.55;0.55;;;23.00;59.90;;;;;;4966708;28;20520;-15
2022/05/20 05:52:41;;;;;;;0.73;0.68;;;22.90;59.80;;;;;;4969447;28;20431;-15
2022/05/20 05:55:07;;;;;;;0.75;0.73;;;23.00;59.90;;;;;;4970531;28;20045;-15
2022/05/20 05:57:33;;;;;;;0.80;0.80;;;22.90;60.00;;;;;;4969678;28;20050;-16
2022/05/20 05:59:58;;;;;;;1.02;0.95;;;22.90;59.90;;;;;;4968763;28;20623;-17
2022/05/20 06:02:24;;;;;;;1.63;1.25;;;22.90;60.20;;;;;;4970292;28;20042;-15
2022/05/20 06:04:51;;;;;;;1.58;0.93;;;22.60;60.40;;;;;;4967430;28;20040;-16
2022/05/20 06:07:17;;;;;;;2.42;1.30;;;22.20;60.30;;;;;;4977315;28;20058;-16
2022/05/20 06:09:43;;;;;;;2.65;1.40;;;22.00;60.90;;;;;;4973211;28;20043;-15
2022/05/20 06:12:09;;;;;;;2.28;1.33;;;21.90;61.30;;;;;;4973495;28;20439;-16
2022/05/20 06:14:35;;;;;;;1.77;1.27;;;21.90;61.80;;;;;;4968803;28;20512;-17
2022/05/20 06:17:01;;;;;;;2.03;1.27;;;21.70;62.30;;;;;;4977500;28;20482;-15
2022/05/20 06:19:26;;;;;;;2.92;1.35;;;21.50;63.60;;;;;;4978022;28;20045;-16
2022/05/20 06:21:52;;;;;;;2.15;1.38;;;21.50;63.00;;;;;;4975146;28;20047;-16
2022/05/20 06:24:18;;;;;;;3.35;1.33;;;21.50;63.30;;;;;;4975626;28;20492;-16
2022/05/20 06:26:44;;;;;;;1.30;0.98;;;21.60;62.70;;;;;;4979914;28;20082;-16
2022/05/20 06:29:10;;;;;;;1.80;1.30;;;21.60;62.80;;;;;;4975297;28;20062;-17
2022/05/20 06:31:35;;;;;;;2.45;1.50;;;21.50;62.90;;;;;;4973085;28;20660;-18
2022/05/20 06:34:01;;;;;;;1.73;1.10;;;21.50;63.10;;;;;;4977624;28;20046;-17
2022/05/20 06:41:55;;;;;;;2.05;1.25;;;21.70;63.30;;;;;;4977061;28;20093;-16
2022/05/20 06:44:22;;;;;;;5.07;1.45;;;21.60;63.80;;;;;;4975528;28;20046;-16
2022/05/20 06:46:47;;;;;;;1.23;1.10;;;21.50;64.20;;;;;;4976194;28;20134;-17
2022/05/20 06:49:13;;;;;;;2.42;1.17;;;21.60;64.40;;;;;;4977160;28;20143;-16
2022/05/20 06:51:39;;;;;;;2.60;1.30;;;21.50;64.80;;;;;;4977896;28;20050;-16
2022/05/20 06:54:08;;;;;;;2.85;1.58;;;21.60;64.40;;;;;;4976583;28;20053;-16
2022/05/20 06:56:34;;;;;;;4.85;1.50;;;21.60;64.20;;;;;;4977321;28;20039;-16
2022/05/20 06:59:01;;;;;;;2.30;1.05;;;21.60;64.50;;;;;;4993999;28;20054;-16
2022/05/20 07:01:26;;;;;;;2.05;1.23;;;21.50;64.40;;;;;;4980825;28;20034;-16
2022/05/20 07:03:53;;;;;;;3.95;1.55;;;21.70;64.10;;;;;;4976457;28;20066;-16
2022/05/20 07:06:18;;;;;;;1.85;1.10;;;21.70;63.80;;;;;;4976458;28;20431;-16
2022/05/20 07:08:50;;;;;;;1.67;1.40;;;21.70;63.90;;;;;;4977783;28;20456;-16
2022/05/20 07:11:20;;;;;;;3.13;1.80;;;21.60;64.30;;;;;;4965519;28;20341;-16
2022/05/20 07:13:46;;;;;;;4.00;1.50;;;21.70;63.90;;;;;;4974776;28;20057;-16
2022/05/20 07:16:12;;;;;;;2.53;1.50;;;21.70;64.00;;;;;;4977670;28;20129;-16
2022/05/20 07:18:37;;;;;;;2.47;1.48;;;21.60;64.30;;;;;;4975511;28;20097;-16
2022/05/20 07:21:03;;;;;;;2.58;1.33;;;21.50;64.70;;;;;;4977607;28;20050;-16
2022/05/20 07:23:31;;;;;;;5.03;1.77;;;21.50;64.70;;;;;;4977877;28;20146;-16
2022/05/20 07:25:56;;;;;;;4.03;1.30;;;21.40;65.00;;;;;;4976257;28;20051;-16
2022/05/20 07:28:22;;;;;;;2.55;1.23;;;21.40;65.30;;;;;;4977813;28;20081;-16
2022/05/20 07:30:47;;;;;;;3.70;1.58;;;21.40;65.30;;;;;;4977709;28;20049;-16
2022/05/20 07:33:13;;;;;;;3.53;1.98;;;21.30;65.50;;;;;;4974318;28;20089;-16
2022/05/20 07:35:39;;;;;;;2.55;1.75;;;21.30;65.90;;;;;;4975737;28;20043;-17
2022/05/20 07:38:06;;;;;;;2.10;1.63;;;21.30;65.90;;;;;;4975835;28;20047;-16
2022/05/20 07:40:31;;;;;;;5.43;1.90;;;21.30;66.10;;;;;;4976986;28;20053;-16
2022/05/20 07:42:57;;;;;;;3.17;1.55;;;21.30;66.10;;;;;;4974524;28;20134;-17
2022/05/20 07:45:23;;;;;;;4.03;1.95;;;21.30;66.30;;;;;;4977928;28;20045;-16
2022/05/20 07:47:49;;;;;;;3.15;1.80;;;21.30;66.10;;;;;;4976127;28;20042;-16
2022/05/20 07:50:14;;;;;;;2.72;1.35;;;21.30;66.30;;;;;;4976341;28;20130;-16
2022/05/20 07:55:31;;;;;;;3.90;1.75;;;21.40;66.30;;;;;;4957548;28;20065;-16
2022/05/20 07:57:57;;;;;;;2.92;1.50;;;21.40;66.30;;;;;;4941001;28;20047;-16
2022/05/20 08:00:22;;;;;;;3.97;1.77;;;21.40;66.40;;;;;;4956937;28;20977;-16
2022/05/20 08:02:48;;;;;;;4.50;1.77;;;21.30;67.00;;;;;;4956489;28;20063;-16
2022/05/20 08:05:14;;;;;;;3.45;1.58;;;21.20;66.80;;;;;;4958966;28;20047;-16
2022/05/20 08:07:41;;;;;;;2.97;1.77;;;21.30;66.70;;;;;;4972045;28;20126;-16
2022/05/20 08:10:13;;;;;;;3.22;1.50;;;21.20;66.80;;;;;;4972410;28;20054;-16
2022/05/20 08:12:39;;;;;;;3.50;1.80;;;21.30;66.70;;;;;;4973811;28;20047;-16
2022/05/20 08:15:05;;;;;;;3.60;1.45;;;21.40;67.00;;;;;;4974151;28;20043;-16
2022/05/20 08:17:33;;;;;;;2.08;1.33;;;21.30;66.80;;;;;;4976375;28;20046;-16
2022/05/20 08:19:59;;;;;;;2.03;1.27;;;21.40;66.90;;;;;;4975491;28;20121;-15
2022/05/20 08:22:24;;;;;;;6.10;1.45;;;21.40;66.80;;;;;;4975207;28;20085;-15
2022/05/20 08:24:54;;;;;;;2.75;1.38;;;21.40;66.90;;;;;;4975216;28;20035;-15
2022/05/20 08:27:20;;;;;;;4.95;1.42;;;21.40;67.20;;;;;;4976528;28;20155;-15
2022/05/20 08:29:46;;;;;;;2.47;1.30;;;21.30;67.10;;;;;;4975853;28;20127;-15
2022/05/20 08:32:12;;;;;;;2.33;1.70;;;21.30;67.30;;;;;;4973476;28;20070;-15
2022/05/20 08:34:38;;;;;;;3.50;1.60;;;21.30;67.40;;;;;;4973770;28;20089;-15
2022/05/20 08:37:04;;;;;;;2.30;1.48;;;21.30;67.30;;;;;;4967301;28;20062;-15
2022/05/20 08:39:29;;;;;;;3.33;1.45;;;21.30;67.30;;;;;;4970436;28;20034;-16
2022/05/20 08:41:55;;;;;;;4.65;1.70;;;21.50;66.50;;;;;;4970031;28;20138;-16
2022/05/20 08:44:21;;;;;;;4.50;2.08;;;21.50;66.50;;;;;;4964802;28;20039;-16
2022/05/20 08:46:47;;;;;;;3.83;1.85;;;21.50;66.90;;;;;;4969322;28;20145;-16
2022/05/20 08:49:15;;;;;;;4.20;1.52;;;21.50;67.20;;;;;;4971812;28;20125;-16
2022/05/20 08:51:41;;;;;;;3.20;1.38;;;21.50;67.10;;;;;;4974741;28;20051;-16
2022/05/20 08:54:07;;;;;;;6.43;1.70;;;21.40;67.10;;;;;;4969753;28;20051;-16
2022/05/20 08:56:33;;;;;;;3.90;1.50;;;21.40;67.20;;;;;;4971990;28;20043;-16
2022/05/20 08:59:03;;;;;;;5.10;1.40;;;21.40;67.40;;;;;;4969069;28;20038;-15
2022/05/20 09:01:40;;;;;;;4.38;1.67;;;21.40;67.60;;;;;;4971243;28;20500;-16
2022/05/20 09:04:07;;;;;;;2.13;1.23;;;21.30;67.50;;;;;;4965485;28;20154;-15
2022/05/20 09:06:37;;;;;;;2.25;1.40;;;21.30;67.60;;;;;;4967537;28;20492;-15
2022/05/20 09:09:13;;;;;;;3.78;1.52;;;21.30;67.70;;;;;;4967461;28;20046;-16
2022/05/20 09:11:40;;;;;;;4.30;1.30;;;21.40;67.90;;;;;;4970605;28;20066;-16
2022/05/20 09:17:13;;;;;;;2.30;1.10;;;21.30;68.10;;;;;;4967965;28;20147;-16
2022/05/20 09:19:52;;;;;;;3.42;1.25;;;21.20;68.20;;;;;;4970655;28;20039;-15
2022/05/20 09:22:21;;;;;;;2.25;1.30;;;21.30;68.20;;;;;;4969507;28;20174;-16
2022/05/20 09:24:46;;;;;;;1.63;1.10;;;21.30;68.80;;;;;;4967503;28;20447;-16
2022/05/20 09:27:13;;;;;;;4.45;1.55;;;21.20;68.70;;;;;;4974751;28;20042;-15
2022/05/20 09:29:44;;;;;;;2.03;1.33;;;21.10;69.00;;;;;;4969692;28;20054;-16
2022/05/20 09:32:37;;;;;;;3.17;1.13;;;21.20;68.70;;;;;;4971794;28;20058;-16
2022/05/20 09:35:18;;;;;;;4.03;1.40;;;21.30;68.60;;;;;;4969623;28;20412;-15
2022/05/20 09:37:48;;;;;;;1.73;1.30;;;21.20;68.40;;;;;;4986233;28;20146;-16
2022/05/20 09:40:31;;;;;;;2.00;1.15;;;21.20;68.30;;;;;;4962994;28;20404;-16
2022/05/20 09:43:22;;;;;;;2.05;1.08;;;21.20;68.70;;;;;;4972648;28;20039;-16
2022/05/20 09:45:48;;;;;;;1.30;0.88;;;21.10;68.80;;;;;;4975026;28;20051;-17
2022/05/20 09:48:45;;;;;;;3.13;1.30;;;20.90;69.20;;;;;;4979025;28;20069;-16
2022/05/20 09:51:25;;;;;;;3.03;1.60;;;20.90;69.60;;;;;;4961689;28;20451;-16
2022/05/20 09:54:09;;;;;;;2.63;1.00;;;20.80;69.30;;;;;;4977049;28;20420;-15
2022/05/20 09:56:35;;;;;;;1.98;1.00;;;20.90;68.90;;;;;;4960510;28;20577;-16
2022/05/20 09:59:39;;;;;;;1.65;1.10;;;21.10;67.70;;;;;;4953587;28;20423;-16
2022/05/20 10:02:14;;;;;;;3.17;1.10;;;21.30;66.70;;;;;;4993430;28;20083;-16
2022/05/20 10:04:51;;;;;;;2.42;1.10;;;21.30;66.20;;;;;;4977322;28;20375;-16
2022/05/20 10:07:27;;;;;;;2.75;1.50;;;21.30;65.30;;;;;;4978651;28;20133;-16
2022/05/20 10:09:56;;;;;;;1.50;1.00;;;21.30;64.90;;;;;;4962632;28;20765;-16
2022/05/20 10:12:30;;;;;;;1.73;1.05;;;21.40;64.50;;;;;;4985382;28;20414;-16
2022/05/20 10:15:12;;;;;;;2.80;1.20;;;21.40;64.60;;;;;;4975369;28;20051;-17
2022/05/20 10:18:02;;;;;;;3.58;1.00;;;21.40;64.20;;;;;;4977961;28;20043;-16
2022/05/20 10:20:39;;;;;;;3.08;1.20;;;21.50;64.00;;;;;;4972129;28;20043;-16
2022/05/20 10:23:16;;;;;;;1.67;0.82;;;21.50;63.50;;;;;;4976885;28;20063;-16
2022/05/20 10:26:03;;;;;;;1.20;0.80;;;21.50;62.80;;;;;;4975218;28;20053;-16
2022/05/20 10:34:45;;;;;;;2.83;1.17;;;21.60;62.00;;;;;;4973229;28;20057;-16
2022/05/20 10:37:10;;;;;;;4.00;1.15;;;21.60;62.10;;;;;;4959131;28;20047;-16
2022/05/20 10:40:26;;;;;;;6.15;0.85;;;21.60;62.00;;;;;;4978274;28;20051;-16
2022/05/20 10:43:07;;;;;;;2.70;1.13;;;21.60;61.70;;;;;;4970809;28;20081;-16
2022/05/20 10:48:51;;;;;;;2.08;1.00;;;21.60;60.90;;;;;;4630503;28;10000537;-16
2022/05/20 10:52:00;;;;;;;4.63;1.20;;;21.60;61.00;;;;;;4973454;28;20042;-16
2022/05/20 10:54:25;;;;;;;3.13;0.70;;;21.60;60.20;;;;;;4952516;28;20059;-16
2022/05/20 10:57:16;;;;;;;3.50;1.13;;;21.60;59.90;;;;;;4962421;28;20100;-17
2022/05/20 11:00:00;;;;;;;3.03;1.23;;;21.60;60.10;;;;;;4973568;28;20066;-16
2022/05/20 11:02:47;;;;;;;1.98;1.00;;;21.70;59.60;;;;;;4966719;28;20066;-16
2022/05/20 11:05:49;;;;;;;2.55;1.10;;;21.70;59.40;;;;;;4973202;28;20053;-16
2022/05/20 11:08:23;;;;;;;1.88;0.85;;;21.70;58.70;;;;;;4984127;28;20042;-16
2022/05/20 11:11:23;;;;;;;3.45;1.05;;;21.70;59.10;;;;;;4975308;28;20504;-16
2022/05/20 11:14:08;;;;;;;2.65;0.82;;;21.70;59.30;;;;;;4966037;28;20468;-16
2022/05/20 11:16:42;;;;;;;;;;;21.70;59.40;;;;;;4974370;28;20786;-16
2022/05/20 11:19:27;;;;;;;0.88;0.50;;;21.70;59.80;;;;;;4968125;28;19921;-16
2022/05/20 11:22:11;;;;;;;1.90;0.88;;;21.80;59.60;;;;;;4968136;28;20113;-16
2022/05/20 11:24:55;;;;;;;1.35;0.73;;;21.80;59.80;;;;;;4969513;28;20062;-16
2022/05/20 11:27:28;;;;;;;2.15;0.77;;;21.80;59.20;;;;;;4981545;28;20050;-16
2022/05/20 11:30:25;;;;;;;2.30;0.90;;;21.80;59.50;;;;;;4968013;28;20085;-16
2022/05/20 11:33:57;;;;;;;1.23;0.90;;;21.80;59.60;;;;;;4963557;28;20055;-16
2022/05/20 11:36:49;;;;;;;1.58;0.70;;;21.90;59.90;;;;;;4922478;28;20061;-15
2022/05/20 11:39:42;;;;;;;1.95;0.80;;;21.90;59.50;;;;;;4964633;28;20404;-14
2022/05/20 11:42:39;;;;;;;3.13;0.80;;;21.90;59.80;;;;;;4971626;28;20518;-15
2022/05/20 11:45:40;;;;;;;1.80;0.73;;;21.90;59.90;;;;;;4962951;28;20527;-16
2022/05/20 11:48:27;;;;;;;1.45;0.80;;;21.90;60.20;;;;;;4958869;28;20198;-16
2022/05/20 11:51:28;;;;;;;1.15;0.90;;;22.00;60.30;;;;;;4970886;28;20046;-15
2022/05/20 11:54:02;;;;;;;1.58;0.82;;;22.00;59.90;;;;;;4966909;28;20034;-15
2022/05/20 11:56:33;;;;;;;3.35;1.00;;;22.10;59.80;;;;;;5001279;28;20055;-15
2022/05/20 11:59:06;;;;;;;2.72;0.65;;;22.10;59.80;;;;;;4967362;28;20055;-15
2022/05/20 12:01:32;;;;;;;1.67;0.55;;;22.10;59.40;;;;;;4967736;28;20424;-15
2022/05/20 12:04:07;;;;;;;1.23;0.50;;;22.20;60.80;;;;;;4965689;28;20043;-15
2022/05/20 12:06:41;;;;;;;0.88;0.60;;;22.20;60.20;;;;;;4968144;28;20134;-15
2022/05/20 12:09:24;;;;;;;1.60;0.70;;;22.20;60.30;;;;;;4976132;28;20043;-16
2022/05/20 12:12:11;;;;;;;2.45;0.85;;;22.20;60.30;;;;;;4969752;28;20401;-16
2022/05/20 12:15:07;;;;;;;1.80;0.77;;;22.30;59.10;;;;;;4974355;28;20047;-17
2022/05/20 12:17:40;;;;;;;1.35;0.70;;;22.30;59.20;;;;;;4976253;28;20043;-15
2022/05/20 12:26:24;;;;;;;2.65;0.85;;;22.30;58.50;;;;;;4969981;28;20415;-15
2022/05/20 12:28:50;;;;;;;2.10;1.00;;;22.30;59.10;;;;;;4980695;28;20070;-15
2022/05/20 12:31:25;;;;;;;3.00;1.08;;;22.30;59.40;;;;;;4971320;28;20055;-15
2022/05/20 12:33:52;;;;;;;1.80;0.88;;;22.30;59.50;;;;;;4969833;28;20043;-15
2022/05/20 12:36:30;;;;;;;2.10;0.90;;;22.30;59.10;;;;;;4972566;28;20047;-16
2022/05/20 12:39:07;;;;;;;6.07;1.67;;;22.30;59.00;;;;;;4975509;28;20704;-16
2022/05/20 12:41:48;;;;;;;4.38;1.50;;;22.30;59.20;;;;;;4969464;28;20035;-15
2022/05/20 12:44:20;;;;;;;4.03;1.30;;;22.40;58.80;;;;;;4967883;28;20063;-16
2022/05/20 12:47:19;;;;;;;2.85;1.20;;;22.50;58.40;;;;;;4971332;28;20094;-15
2022/05/20 12:49:47;;;;;;;1.13;0.93;;;22.50;58.60;;;;;;4975565;28;20078;-15
2022/05/20 12:52:25;;;;;;;8.45;2.00;;;22.50;58.00;;;;;;4969705;28;20050;-15
2022/05/20 12:54:52;;;;;;;3.30;1.30;;;22.50;58.80;;;;;;4973533;28;20053;-15
2022/05/20 12:57:26;;;;;;;2.47;1.15;;;22.50;57.90;;;;;;4972539;28;20151;-15
2022/05/20 13:00:01;;;;;;;;;;;22.50;58.10;;;;;;4972742;28;20043;-15
2022/05/20 13:02:38;;;;;;;2.88;1.10;;;22.50;57.50;;;;;;4971674;28;20387;-15
2022/05/20 13:05:20;;;;;;;3.88;1.33;;;22.50;57.80;;;;;;4973672;28;20035;-17
2022/05/20 13:07:47;;;;;;;2.08;0.93;;;22.50;56.60;;;;;;4964743;28;20094;-16
2022/05/20 13:10:29;;;;;;;1.83;1.00;;;22.50;57.30;;;;;;4967952;28;20043;-16
2022/05/20 13:12:59;;;;;;;3.45;1.23;;;22.50;57.80;;;;;;4999746;28;20042;-16
2022/05/20 13:15:24;;;;;;;5.13;2.10;;;22.50;57.40;;;;;;4969614;28;21562;-18
2022/05/20 13:17:57;;;;;;;4.47;1.80;;;22.50;57.60;;;;;;4974781;28;20107;-15
2022/05/20 13:20:24;;;;;;;8.00;2.72;;;22.60;58.50;;;;;;4980569;28;20062;-15
2022/05/20 13:22:50;;;;;;;9.63;2.85;;;22.60;59.30;;;;;;4627507;28;9999758;-16
2022/05/20 13:25:16;;;;;;;6.55;2.80;;;22.50;59.50;;;;;;4972021;28;20045;-16
2022/05/20 13:27:46;;;;;;;7.90;2.55;;;22.50;59.40;;;;;;4971783;28;20578;-16
2022/05/20 13:30:17;;;;;;;7.95;2.53;;;22.60;59.30;;;;;;4967067;28;20047;-16
2022/05/20 13:32:43;;;;;;;12.88;3.92;;;22.60;58.60;;;;;;5001883;28;20048;-15
2022/05/20 13:35:09;;;;;;;22.13;5.75;;;22.60;59.10;;;;;;5003114;28;20050;-16
2022/05/20 13:37:37;;;;;;;12.88;4.25;;;22.60;59.00;;;;;;4961311;28;20620;-15
2022/05/20 13:40:11;;;;;;;12.73;3.78;;;22.60;59.10;;;;;;4970178;28;20039;-16
2022/05/20 13:42:36;;;;;;;11.73;3.50;;;22.60;59.20;;;;;;4968154;28;20050;-16
2022/05/20 13:45:10;;;;;;;12.55;3.83;;;22.60;58.80;;;;;;4974005;28;20059;-16
2022/05/20 13:50:21;;;;;;;15.57;3.85;;;22.60;58.60;;;;;;4968624;28;19956;-18
2022/05/20 13:52:48;;;;;;;10.80;2.95;;;22.60;58.40;;;;;;4983324;28;20042;-17
2022/05/20 13:55:14;;;;;;;6.45;2.72;;;22.70;58.00;;;;;;4969695;28;20043;-17